createdAt,value
2017-03-09T00:00:15.787Z,8.88
2017-03-09T00:00:37.502Z,8.91
2017-03-09T00:00:59.208Z,8.92
2017-03-09T00:01:30.543Z,8.98
2017-03-09T00:01:52.273Z,9.02
2017-03-09T00:02:23.522Z,8.99
2017-03-09T00:02:45.307Z,8.98
2017-03-09T00:03:11.781Z,8.95
2017-03-09T00:03:33.495Z,8.93
2017-03-09T00:03:55.211Z,8.91
2017-03-09T00:04:17.034Z,8.91
2017-03-09T00:04:38.731Z,8.96
2017-03-09T00:05:05.202Z,8.96
2017-03-09T00:05:31.679Z,8.94
2017-03-09T00:06:07.710Z,8.94
2017-03-09T00:06:34.859Z,8.94
2017-03-09T00:06:56.563Z,8.93
2017-03-09T00:07:18.258Z,8.99
2017-03-09T00:07:49.591Z,8.95
2017-03-09T00:08:11.294Z,8.93
2017-03-09T00:08:33.001Z,8.96
2017-03-09T00:08:54.750Z,8.95
2017-03-09T00:09:16.552Z,8.93
2017-03-09T00:09:38.267Z,8.95
2017-03-09T00:10:04.739Z,8.96
2017-03-09T00:10:26.543Z,8.98
2017-03-09T00:10:48.369Z,8.98
2017-03-09T00:11:17.514Z,8.94
2017-03-09T00:11:44.004Z,8.93
2017-03-09T00:12:05.827Z,8.94
2017-03-09T00:12:27.540Z,8.94
2017-03-09T00:12:58.799Z,8.91
2017-03-09T00:13:20.575Z,8.88
2017-03-09T00:14:23.091Z,8.97
2017-03-09T00:14:49.645Z,8.97
2017-03-09T00:15:11.359Z,8.96
2017-03-09T00:15:33.076Z,8.98
2017-03-09T00:16:09.106Z,8.97
2017-03-09T00:16:31.582Z,8.92
2017-03-09T00:16:53.304Z,8.95
2017-03-09T00:17:29.331Z,9.00
2017-03-09T00:17:56.610Z,8.98
2017-03-09T00:18:18.304Z,8.95
2017-03-09T00:18:40.016Z,8.95
2017-03-09T00:19:06.568Z,8.95
2017-03-09T00:19:28.286Z,8.95
2017-03-09T00:19:50.005Z,8.88
2017-03-09T00:20:21.321Z,8.90
2017-03-09T00:20:43.023Z,8.90
2017-03-09T00:21:04.723Z,8.92
2017-03-09T00:21:26.434Z,8.96
2017-03-09T00:21:48.227Z,8.96
2017-03-09T00:22:14.706Z,8.95
2017-03-09T00:22:36.421Z,8.94
2017-03-09T00:23:02.962Z,8.93
2017-03-09T00:23:24.706Z,8.94
2017-03-09T00:24:00.770Z,8.95
2017-03-09T00:24:27.909Z,8.95
2017-03-09T00:24:49.616Z,8.96
2017-03-09T00:25:11.303Z,8.94
2017-03-09T00:25:33.004Z,8.96
2017-03-09T00:25:54.817Z,8.95
2017-03-09T00:26:30.849Z,8.97
2017-03-09T00:26:53.160Z,8.98
2017-03-09T00:27:14.957Z,8.96
2017-03-09T00:27:36.665Z,8.95
2017-03-09T00:28:03.137Z,8.95
2017-03-09T00:28:24.943Z,8.93
2017-03-09T00:28:46.655Z,8.97
2017-03-09T00:29:13.139Z,8.92
2017-03-09T00:29:34.851Z,8.91
2017-03-09T00:30:11.003Z,8.95
2017-03-09T00:30:33.428Z,8.92
2017-03-09T00:30:55.151Z,8.94
2017-03-09T00:31:21.708Z,8.94
2017-03-09T00:31:43.413Z,8.97
2017-03-09T00:32:10.021Z,8.98
2017-03-09T00:32:31.803Z,8.97
2017-03-09T00:32:58.326Z,8.91
2017-03-09T00:33:20.203Z,8.91
2017-03-09T00:33:46.718Z,8.90
2017-03-09T00:34:13.243Z,8.94
2017-03-09T00:34:35.019Z,8.94
2017-03-09T00:35:11.027Z,9.00
2017-03-09T00:35:35.334Z,8.94
2017-03-09T00:35:57.092Z,8.95
2017-03-09T00:36:18.815Z,8.92
2017-03-09T00:36:45.323Z,8.89
2017-03-09T00:37:07.061Z,8.90
2017-03-09T00:37:43.087Z,8.87
2017-03-09T00:38:10.131Z,8.84
2017-03-09T00:38:31.864Z,8.85
2017-03-09T00:38:53.593Z,8.86
2017-03-09T00:39:20.094Z,8.90
2017-03-09T00:39:41.923Z,8.90
2017-03-09T00:40:08.408Z,8.90
2017-03-09T00:40:30.136Z,8.92
2017-03-09T00:40:56.657Z,8.91
2017-03-09T00:41:18.440Z,8.95
2017-03-09T00:41:44.978Z,8.95
2017-03-09T00:42:06.776Z,8.91
2017-03-09T00:42:33.264Z,8.93
2017-03-09T00:43:40.590Z,8.96
2017-03-09T00:44:02.350Z,8.94
2017-03-09T00:44:38.373Z,8.92
2017-03-09T00:45:08.248Z,8.92
2017-03-09T00:45:44.306Z,8.92
2017-03-09T00:46:11.439Z,8.92
2017-03-09T00:46:33.276Z,8.95
2017-03-09T00:47:09.313Z,9.01
2017-03-09T00:47:31.611Z,9.00
2017-03-09T00:47:53.387Z,9.00
2017-03-09T00:48:15.160Z,9.00
2017-03-09T00:48:41.674Z,9.00
2017-03-09T00:49:03.485Z,8.95
2017-03-09T00:49:25.298Z,8.92
2017-03-09T00:50:01.373Z,8.86
2017-03-09T00:50:28.421Z,8.82
2017-03-09T00:50:50.183Z,8.81
2017-03-09T00:51:21.424Z,8.83
2017-03-09T00:51:43.188Z,8.87
2017-03-09T00:52:14.449Z,8.93
2017-03-09T00:52:36.179Z,8.90
2017-03-09T00:53:07.448Z,8.94
2017-03-09T00:53:29.199Z,8.97
2017-03-09T00:54:00.600Z,8.95
2017-03-09T00:54:22.305Z,8.94
2017-03-09T00:54:58.345Z,8.93
2017-03-09T00:55:20.699Z,8.93
2017-03-09T00:55:42.406Z,8.95
2017-03-09T00:56:13.672Z,8.96
2017-03-09T00:56:35.637Z,8.95
2017-03-09T00:57:02.133Z,8.98
2017-03-09T00:57:23.883Z,8.96
2017-03-09T00:57:45.609Z,8.99
2017-03-09T00:58:07.336Z,9.02
2017-03-09T00:58:29.051Z,9.00
2017-03-09T00:58:50.766Z,9.00
2017-03-09T00:59:12.469Z,8.99
2017-03-09T00:59:34.197Z,8.97
2017-03-09T00:59:55.939Z,8.95
2017-03-09T01:00:17.736Z,8.91
2017-03-09T01:00:39.445Z,8.87
2017-03-09T01:01:01.187Z,8.90
2017-03-09T01:01:22.883Z,8.91
2017-03-09T01:01:49.383Z,8.93
2017-03-09T01:02:11.097Z,8.94
2017-03-09T01:02:37.611Z,8.92
2017-03-09T01:02:59.365Z,8.88
2017-03-09T01:03:30.626Z,8.90
2017-03-09T01:03:52.368Z,8.93
2017-03-09T01:04:23.640Z,8.98
2017-03-09T01:04:45.378Z,8.98
2017-03-09T01:05:16.643Z,9.03
2017-03-09T01:05:38.376Z,9.05
2017-03-09T01:06:09.624Z,9.00
2017-03-09T01:06:31.339Z,8.98
2017-03-09T01:07:02.613Z,8.94
2017-03-09T01:07:24.356Z,8.91
2017-03-09T01:07:55.631Z,8.87
2017-03-09T01:08:17.365Z,8.89
2017-03-09T01:08:48.643Z,8.96
2017-03-09T01:09:10.363Z,9.02
2017-03-09T01:09:41.621Z,9.01
2017-03-09T01:10:03.370Z,9.01
2017-03-09T01:10:29.890Z,9.02
2017-03-09T01:10:51.640Z,9.00
2017-03-09T01:11:18.149Z,9.00
2017-03-09T01:11:39.868Z,9.01
2017-03-09T01:12:06.358Z,9.03
2017-03-09T01:12:28.088Z,9.07
2017-03-09T01:12:49.829Z,9.09
2017-03-09T01:13:57.101Z,9.04
2017-03-09T01:14:28.359Z,9.04
2017-03-09T01:14:50.089Z,9.07
2017-03-09T01:15:11.852Z,9.07
2017-03-09T01:15:33.621Z,9.09
2017-03-09T01:15:55.480Z,9.05
2017-03-09T01:16:17.229Z,9.05
2017-03-09T01:16:38.966Z,9.04
2017-03-09T01:17:00.709Z,9.03
2017-03-09T01:17:22.441Z,9.01
2017-03-09T01:17:44.206Z,9.00
2017-03-09T01:18:20.229Z,9.02
2017-03-09T01:18:47.330Z,9.06
2017-03-09T01:19:09.134Z,9.03
2017-03-09T01:19:30.895Z,9.01
2017-03-09T01:19:57.402Z,9.00
2017-03-09T01:20:19.160Z,9.01
2017-03-09T01:20:45.650Z,9.04
2017-03-09T01:21:07.407Z,9.04
2017-03-09T01:21:33.939Z,9.00
2017-03-09T01:21:55.688Z,9.00
2017-03-09T01:22:17.464Z,9.01
2017-03-09T01:22:53.487Z,9.02
2017-03-09T01:23:15.784Z,9.04
2017-03-09T01:23:37.515Z,9.06
2017-03-09T01:23:59.230Z,9.07
2017-03-09T01:24:20.965Z,9.06
2017-03-09T01:24:42.699Z,9.08
2017-03-09T01:25:04.430Z,9.07
2017-03-09T01:25:26.171Z,9.10
2017-03-09T01:25:48.015Z,9.12
2017-03-09T01:26:09.739Z,9.03
2017-03-09T01:26:31.480Z,9.04
2017-03-09T01:26:53.222Z,9.08
2017-03-09T01:27:14.970Z,9.07
2017-03-09T01:27:36.717Z,9.12
2017-03-09T01:27:58.470Z,9.10
2017-03-09T01:28:20.202Z,9.08
2017-03-09T01:28:41.941Z,9.08
2017-03-09T01:29:03.716Z,9.04
2017-03-09T01:29:25.404Z,9.04
2017-03-09T01:29:47.109Z,9.03
2017-03-09T01:30:08.817Z,9.00
2017-03-09T01:30:30.559Z,8.99
2017-03-09T01:30:52.293Z,8.98
2017-03-09T01:31:14.047Z,8.99
2017-03-09T01:31:35.803Z,9.03
2017-03-09T01:32:07.070Z,9.05
2017-03-09T01:32:28.807Z,9.04
2017-03-09T01:33:00.066Z,9.07
2017-03-09T01:33:21.795Z,9.02
2017-03-09T01:33:43.581Z,8.97
2017-03-09T01:34:10.101Z,8.93
2017-03-09T01:34:31.846Z,8.99
2017-03-09T01:35:03.109Z,9.03
2017-03-09T01:35:24.911Z,9.02
2017-03-09T01:35:46.642Z,9.01
2017-03-09T01:36:22.718Z,8.97
2017-03-09T01:36:49.823Z,9.02
2017-03-09T01:37:11.548Z,9.05
2017-03-09T01:38:18.872Z,9.00
2017-03-09T01:38:40.583Z,8.96
2017-03-09T01:39:47.886Z,9.01
2017-03-09T01:40:09.647Z,9.00
2017-03-09T01:41:12.198Z,8.99
2017-03-09T01:41:33.966Z,9.00
2017-03-09T01:41:55.711Z,8.96
2017-03-09T01:42:17.458Z,8.93
2017-03-09T01:42:39.198Z,8.96
2017-03-09T01:43:00.926Z,9.01
2017-03-09T01:43:22.657Z,9.00
2017-03-09T01:43:44.406Z,9.00
2017-03-09T01:44:06.122Z,9.01
2017-03-09T01:44:27.957Z,9.01
2017-03-09T01:44:49.778Z,8.96
2017-03-09T01:45:11.591Z,8.98
2017-03-09T01:45:33.318Z,8.96
2017-03-09T01:45:55.151Z,9.00
2017-03-09T01:46:16.859Z,9.03
2017-03-09T01:46:43.359Z,9.07
2017-03-09T01:47:05.157Z,9.07
2017-03-09T01:47:31.664Z,9.07
2017-03-09T01:47:53.394Z,9.06
2017-03-09T01:48:24.753Z,9.07
2017-03-09T01:48:46.488Z,9.08
2017-03-09T01:49:12.985Z,9.07
2017-03-09T01:49:34.696Z,9.08
2017-03-09T01:49:56.504Z,9.06
2017-03-09T01:50:22.997Z,9.06
2017-03-09T01:50:44.693Z,9.07
2017-03-09T01:51:16.039Z,9.08
2017-03-09T01:51:37.759Z,9.06
2017-03-09T01:52:04.248Z,9.02
2017-03-09T01:52:25.945Z,8.96
2017-03-09T01:52:52.534Z,8.97
2017-03-09T01:53:14.236Z,8.99
2017-03-09T01:53:40.724Z,9.02
2017-03-09T01:54:02.451Z,9.03
2017-03-09T01:54:29.020Z,9.05
2017-03-09T01:54:50.743Z,9.10
2017-03-09T01:55:17.220Z,9.08
2017-03-09T01:56:19.742Z,9.05
2017-03-09T01:56:55.762Z,9.06
2017-03-09T01:57:22.837Z,9.07
2017-03-09T01:57:44.539Z,9.07
2017-03-09T01:58:15.807Z,9.08
2017-03-09T01:58:37.570Z,9.07
2017-03-09T01:59:08.831Z,9.09
2017-03-09T01:59:30.562Z,9.07
2017-03-09T02:00:01.910Z,9.03
2017-03-09T02:00:23.609Z,9.02
2017-03-09T02:01:35.740Z,8.90
2017-03-09T02:01:57.462Z,8.89
2017-03-09T02:02:23.950Z,8.86
2017-03-09T02:02:45.664Z,8.86
2017-03-09T02:03:12.242Z,8.90
2017-03-09T02:03:33.964Z,8.93
2017-03-09T02:04:10.008Z,8.95
2017-03-09T02:04:32.393Z,8.91
2017-03-09T02:04:54.089Z,8.88
2017-03-09T02:05:20.569Z,8.88
2017-03-09T02:05:42.355Z,8.88
2017-03-09T02:06:13.603Z,8.90
2017-03-09T02:06:35.322Z,8.92
2017-03-09T02:07:06.646Z,8.89
2017-03-09T02:07:28.359Z,8.88
2017-03-09T02:07:50.066Z,8.82
2017-03-09T02:08:52.652Z,8.81
2017-03-09T02:09:14.363Z,8.83
2017-03-09T02:09:36.066Z,8.82
2017-03-09T02:09:57.764Z,8.83
2017-03-09T02:10:19.565Z,8.85
2017-03-09T02:11:26.844Z,8.96
2017-03-09T02:11:49.660Z,8.97
2017-03-09T02:12:11.381Z,8.94
2017-03-09T02:12:42.643Z,8.88
2017-03-09T02:13:04.437Z,8.88
2017-03-09T02:13:26.158Z,8.89
2017-03-09T02:14:02.196Z,8.96
2017-03-09T02:14:24.540Z,8.97
2017-03-09T02:14:46.239Z,9.02
2017-03-09T02:15:53.617Z,8.97
2017-03-09T02:16:15.314Z,8.94
2017-03-09T02:16:51.355Z,8.93
2017-03-09T02:17:18.482Z,8.91
2017-03-09T02:17:40.179Z,8.89
2017-03-09T02:18:01.876Z,8.88
2017-03-09T02:18:23.622Z,8.90
2017-03-09T02:18:45.398Z,8.91
2017-03-09T02:19:52.676Z,8.94
2017-03-09T02:20:14.494Z,8.96
2017-03-09T02:20:50.532Z,8.99
2017-03-09T02:21:17.555Z,8.98
2017-03-09T02:21:39.381Z,8.96
2017-03-09T02:22:01.077Z,8.95
2017-03-09T02:22:27.562Z,8.98
2017-03-09T02:22:49.272Z,8.94
2017-03-09T02:23:11.062Z,8.93
2017-03-09T02:23:42.319Z,8.95
2017-03-09T02:24:04.061Z,8.95
2017-03-09T02:24:25.880Z,8.94
2017-03-09T02:24:57.132Z,8.95
2017-03-09T02:25:18.834Z,8.93
2017-03-09T02:25:54.869Z,8.93
2017-03-09T02:26:22.015Z,8.93
2017-03-09T02:26:43.725Z,8.93
2017-03-09T02:27:05.426Z,8.97
2017-03-09T02:27:27.266Z,8.97
2017-03-09T02:27:48.976Z,8.96
2017-03-09T02:28:15.461Z,8.95
2017-03-09T02:28:37.272Z,8.96
2017-03-09T02:28:58.968Z,8.92
2017-03-09T02:30:11.018Z,8.93
2017-03-09T02:30:32.738Z,8.96
2017-03-09T02:30:54.452Z,8.96
2017-03-09T02:31:16.260Z,8.95
2017-03-09T02:31:37.966Z,8.93
2017-03-09T02:32:04.443Z,8.96
2017-03-09T02:32:26.144Z,8.97
2017-03-09T02:32:52.729Z,8.95
2017-03-09T02:33:14.424Z,8.94
2017-03-09T02:34:21.816Z,8.92
2017-03-09T02:34:43.538Z,8.97
2017-03-09T02:35:14.786Z,9.00
2017-03-09T02:35:36.579Z,8.99
2017-03-09T02:35:58.304Z,8.97
2017-03-09T02:36:20.011Z,8.94
2017-03-09T02:36:41.708Z,8.92
2017-03-09T02:37:03.501Z,8.91
2017-03-09T02:37:39.539Z,8.89
2017-03-09T02:38:06.599Z,8.88
2017-03-09T02:38:28.398Z,8.88
2017-03-09T02:38:50.101Z,8.86
2017-03-09T02:39:11.807Z,8.88
2017-03-09T02:39:33.505Z,8.90
2017-03-09T02:40:00.063Z,8.89
2017-03-09T02:40:21.768Z,8.89
2017-03-09T02:40:48.261Z,8.90
2017-03-09T02:41:09.965Z,8.88
2017-03-09T02:41:31.771Z,8.85
2017-03-09T02:42:07.782Z,8.92
2017-03-09T02:42:34.901Z,8.95
2017-03-09T02:42:56.699Z,8.96
2017-03-09T02:43:27.945Z,9.00
2017-03-09T02:43:49.655Z,9.04
2017-03-09T02:44:21.000Z,9.03
2017-03-09T02:44:42.706Z,9.02
2017-03-09T02:45:13.963Z,8.96
2017-03-09T02:45:35.759Z,8.99
2017-03-09T02:46:07.017Z,9.05
2017-03-09T02:46:28.708Z,9.08
2017-03-09T02:47:00.047Z,9.06
2017-03-09T02:47:21.752Z,9.04
2017-03-09T02:47:43.477Z,9.03
2017-03-09T02:48:09.954Z,9.05
2017-03-09T02:48:31.784Z,9.01
2017-03-09T02:49:07.822Z,8.98
2017-03-09T02:49:34.885Z,8.97
2017-03-09T02:49:56.675Z,9.04
2017-03-09T02:50:23.160Z,9.04
2017-03-09T02:50:44.863Z,9.05
2017-03-09T02:51:06.684Z,9.03
2017-03-09T02:51:37.933Z,8.97
2017-03-09T02:51:59.631Z,8.94
2017-03-09T02:52:30.969Z,8.95
2017-03-09T02:52:52.688Z,8.95
2017-03-09T02:53:23.945Z,8.96
2017-03-09T02:53:45.730Z,8.96
2017-03-09T02:54:07.428Z,8.99
2017-03-09T02:54:33.904Z,9.06
2017-03-09T02:54:55.634Z,9.13
2017-03-09T02:55:17.423Z,9.12
2017-03-09T02:55:43.907Z,9.11
2017-03-09T02:56:05.637Z,9.10
2017-03-09T02:56:32.288Z,9.10
2017-03-09T02:56:53.990Z,9.08
2017-03-09T02:57:15.736Z,9.07
2017-03-09T02:57:46.993Z,9.07
2017-03-09T02:58:08.804Z,9.05
2017-03-09T02:58:30.533Z,9.03
2017-03-09T02:59:01.801Z,9.02
2017-03-09T02:59:23.525Z,8.98
2017-03-09T03:00:16.556Z,8.90
2017-03-09T03:00:38.299Z,8.88
2017-03-09T03:01:00.085Z,8.88
2017-03-09T03:01:21.855Z,8.90
2017-03-09T03:01:43.594Z,8.89
2017-03-09T03:02:05.321Z,8.88
2017-03-09T03:02:27.055Z,8.84
2017-03-09T03:02:48.810Z,8.83
2017-03-09T03:03:10.625Z,8.83
2017-03-09T03:03:32.310Z,8.81
2017-03-09T03:03:54.136Z,8.79
2017-03-09T03:04:15.887Z,8.82
2017-03-09T03:04:37.592Z,8.83
2017-03-09T03:04:59.369Z,8.86
2017-03-09T03:05:21.101Z,8.85
2017-03-09T03:05:42.873Z,8.90
2017-03-09T03:06:04.586Z,8.90
2017-03-09T03:06:26.441Z,8.91
2017-03-09T03:06:57.700Z,8.96
2017-03-09T03:07:19.445Z,8.93
2017-03-09T03:08:31.526Z,8.84
2017-03-09T03:08:53.442Z,8.84
2017-03-09T03:09:15.196Z,8.85
2017-03-09T03:09:36.927Z,8.83
2017-03-09T03:09:58.632Z,8.82
2017-03-09T03:10:20.363Z,8.79
2017-03-09T03:10:42.041Z,8.77
2017-03-09T03:11:03.749Z,8.77
2017-03-09T03:11:25.466Z,8.74
2017-03-09T03:12:01.493Z,8.70
2017-03-09T03:12:28.629Z,8.68
2017-03-09T03:12:50.359Z,8.66
2017-03-09T03:13:52.893Z,8.68
2017-03-09T03:14:14.655Z,8.68
2017-03-09T03:15:21.936Z,8.66
2017-03-09T03:15:43.695Z,8.67
2017-03-09T03:16:50.980Z,8.67
2017-03-09T03:17:12.725Z,8.67
2017-03-09T03:17:48.752Z,8.65
2017-03-09T03:18:15.792Z,8.63
2017-03-09T03:18:37.538Z,8.68
2017-03-09T03:19:08.812Z,8.69
2017-03-09T03:19:30.569Z,8.65
2017-03-09T03:19:57.058Z,8.64
2017-03-09T03:20:18.818Z,8.61
2017-03-09T03:20:40.540Z,8.60
2017-03-09T03:21:07.025Z,8.58
2017-03-09T03:21:28.727Z,8.58
2017-03-09T03:21:55.219Z,8.66
2017-03-09T03:22:16.957Z,8.65
2017-03-09T03:22:48.217Z,8.63
2017-03-09T03:23:09.965Z,8.61
2017-03-09T03:23:31.727Z,8.64
2017-03-09T03:23:53.478Z,8.70
2017-03-09T03:24:15.220Z,8.76
2017-03-09T03:24:36.956Z,8.78
2017-03-09T03:24:58.673Z,8.79
2017-03-09T03:25:20.399Z,8.81
2017-03-09T03:25:42.148Z,8.85
2017-03-09T03:26:03.930Z,8.84
2017-03-09T03:26:25.676Z,8.82
2017-03-09T03:26:47.401Z,8.80
2017-03-09T03:27:09.125Z,8.78
2017-03-09T03:27:30.862Z,8.76
2017-03-09T03:28:00.151Z,8.71
2017-03-09T03:28:21.884Z,8.72
2017-03-09T03:28:43.609Z,8.79
2017-03-09T03:29:05.317Z,8.80
2017-03-09T03:29:27.025Z,8.77
2017-03-09T03:29:48.711Z,8.74
2017-03-09T03:30:10.417Z,8.73
2017-03-09T03:30:32.134Z,8.71
2017-03-09T03:31:03.405Z,8.70
2017-03-09T03:31:26.262Z,8.69
2017-03-09T03:31:47.987Z,8.70
2017-03-09T03:32:09.782Z,8.70
2017-03-09T03:32:31.536Z,8.70
2017-03-09T03:32:53.315Z,8.72
2017-03-09T03:33:16.041Z,8.70
2017-03-09T03:33:37.795Z,8.69
2017-03-09T03:34:04.303Z,8.73
2017-03-09T03:34:26.048Z,8.70
2017-03-09T03:34:57.332Z,8.72
2017-03-09T03:35:19.082Z,8.72
2017-03-09T03:35:55.116Z,8.74
2017-03-09T03:36:22.184Z,8.80
2017-03-09T03:36:43.916Z,8.81
2017-03-09T03:37:51.248Z,8.85
2017-03-09T03:38:13.023Z,8.88
2017-03-09T03:39:15.544Z,8.77
2017-03-09T03:39:37.274Z,8.85
2017-03-09T03:39:58.977Z,8.91
2017-03-09T03:40:20.681Z,8.90
2017-03-09T03:40:42.444Z,8.88
2017-03-09T03:41:05.171Z,8.84
2017-03-09T03:41:31.677Z,8.84
2017-03-09T03:41:58.178Z,8.85
2017-03-09T03:42:24.681Z,8.85
2017-03-09T03:42:46.427Z,8.86
2017-03-09T03:43:17.827Z,8.84
2017-03-09T03:43:39.561Z,8.87
2017-03-09T03:44:10.831Z,8.87
2017-03-09T03:44:32.592Z,8.87
2017-03-09T03:45:03.856Z,8.86
2017-03-09T03:45:25.581Z,8.85
2017-03-09T03:45:56.853Z,8.83
2017-03-09T03:46:18.624Z,8.84
2017-03-09T03:46:49.885Z,8.84
2017-03-09T03:47:11.628Z,8.83
2017-03-09T03:47:42.886Z,8.83
2017-03-09T03:48:04.611Z,8.83
2017-03-09T03:48:35.877Z,8.83
2017-03-09T03:48:57.615Z,8.84
2017-03-09T03:49:19.400Z,8.84
2017-03-09T03:50:21.980Z,8.80
2017-03-09T03:50:53.370Z,8.78
2017-03-09T03:51:15.119Z,8.76
2017-03-09T03:51:36.832Z,8.73
2017-03-09T03:52:01.425Z,8.70
2017-03-09T03:52:23.182Z,8.69
2017-03-09T03:52:44.902Z,8.68
2017-03-09T03:53:06.637Z,8.69
2017-03-09T03:53:28.364Z,8.69
2017-03-09T03:53:50.087Z,8.70
2017-03-09T03:54:11.821Z,8.69
2017-03-09T03:54:33.552Z,8.70
2017-03-09T03:55:00.048Z,8.69
2017-03-09T03:55:21.786Z,8.69
2017-03-09T03:55:43.532Z,8.69
2017-03-09T03:56:19.578Z,8.68
2017-03-09T03:56:46.663Z,8.68
2017-03-09T03:57:08.387Z,8.69
2017-03-09T03:57:44.414Z,8.67
2017-03-09T03:58:11.681Z,8.66
2017-03-09T03:58:33.432Z,8.66
2017-03-09T03:58:59.937Z,8.67
2017-03-09T03:59:21.686Z,8.67
2017-03-09T03:59:43.435Z,8.66
2017-03-09T04:00:14.694Z,8.65
2017-03-09T04:00:36.483Z,8.65
2017-03-09T04:00:58.234Z,8.66
2017-03-09T04:01:29.516Z,8.65
2017-03-09T04:01:51.272Z,8.63
2017-03-09T04:02:15.540Z,8.64
2017-03-09T04:02:37.313Z,8.64
2017-03-09T04:02:59.037Z,8.62
2017-03-09T04:03:35.065Z,8.62
2017-03-09T04:03:57.372Z,8.64
2017-03-09T04:04:19.097Z,8.63
2017-03-09T04:04:40.830Z,8.64
2017-03-09T04:05:02.556Z,8.64
2017-03-09T04:06:05.058Z,8.65
2017-03-09T04:06:26.748Z,8.63
2017-03-09T04:06:48.445Z,8.63
2017-03-09T04:07:10.138Z,8.62
2017-03-09T04:07:31.833Z,8.62
2017-03-09T04:07:53.535Z,8.63
2017-03-09T04:08:15.260Z,8.61
2017-03-09T04:08:37.181Z,8.62
2017-03-09T04:08:58.915Z,8.62
2017-03-09T04:09:20.667Z,8.62
2017-03-09T04:09:42.457Z,8.63
2017-03-09T04:10:04.231Z,8.63
2017-03-09T04:10:26.172Z,8.65
2017-03-09T04:10:48.104Z,8.66
2017-03-09T04:11:09.853Z,8.65
2017-03-09T04:11:31.670Z,8.67
2017-03-09T04:11:53.454Z,8.66
2017-03-09T04:12:15.572Z,8.66
2017-03-09T04:12:37.346Z,8.67
2017-03-09T04:12:59.112Z,8.67
2017-03-09T04:13:20.873Z,8.66
2017-03-09T04:13:42.715Z,8.66
2017-03-09T04:14:04.478Z,8.68
2017-03-09T04:14:26.236Z,8.68
2017-03-09T04:14:48.269Z,8.68
2017-03-09T04:15:10.025Z,8.68
2017-03-09T04:15:31.911Z,8.70
2017-03-09T04:15:53.735Z,8.72
2017-03-09T04:16:15.623Z,8.74
2017-03-09T04:17:21.860Z,8.74
2017-03-09T04:17:43.912Z,8.74
2017-03-09T04:18:05.956Z,8.73
2017-03-09T04:18:27.948Z,8.71
2017-03-09T04:18:49.788Z,8.70
2017-03-09T04:19:11.609Z,8.68
2017-03-09T04:19:33.655Z,8.68
2017-03-09T04:19:55.595Z,8.69
2017-03-09T04:20:17.637Z,8.70
2017-03-09T04:20:39.439Z,8.68
2017-03-09T04:21:01.286Z,8.66
2017-03-09T04:21:23.383Z,8.65
2017-03-09T04:21:45.283Z,8.66
2017-03-09T04:22:06.985Z,8.66
2017-03-09T04:22:28.715Z,8.66
2017-03-09T04:22:50.601Z,8.68
2017-03-09T04:23:12.670Z,8.66
2017-03-09T04:23:34.500Z,8.65
2017-03-09T04:23:56.470Z,8.63
2017-03-09T04:24:54.885Z,8.63
2017-03-09T04:25:16.814Z,8.62
2017-03-09T04:25:38.593Z,8.64
2017-03-09T04:26:00.356Z,8.63
2017-03-09T04:26:22.157Z,8.64
2017-03-09T04:26:43.936Z,8.65
2017-03-09T04:27:05.959Z,8.65
2017-03-09T04:27:27.854Z,8.66
2017-03-09T04:27:49.587Z,8.68
2017-03-09T04:28:11.308Z,8.68
2017-03-09T04:28:47.396Z,8.69
2017-03-09T04:29:09.958Z,8.70
2017-03-09T04:29:31.705Z,8.71
2017-03-09T04:29:53.417Z,8.70
2017-03-09T04:30:15.107Z,8.70
2017-03-09T04:30:36.921Z,8.70
2017-03-09T04:31:01.564Z,8.72
2017-03-09T04:31:23.501Z,8.72
2017-03-09T04:31:45.369Z,8.71
2017-03-09T04:32:07.652Z,8.71
2017-03-09T04:32:29.632Z,8.72
2017-03-09T04:32:51.478Z,8.72
2017-03-09T04:33:13.648Z,8.72
2017-03-09T04:33:35.581Z,8.71
2017-03-09T04:33:57.548Z,8.70
2017-03-09T04:34:19.360Z,8.72
2017-03-09T04:34:41.479Z,8.72
2017-03-09T04:35:03.177Z,8.72
2017-03-09T04:35:25.080Z,8.73
2017-03-09T04:35:47.177Z,8.73
2017-03-09T04:36:09.162Z,8.73
2017-03-09T04:36:30.989Z,8.73
2017-03-09T04:36:53.468Z,8.72
2017-03-09T04:37:15.347Z,8.72
2017-03-09T04:37:37.399Z,8.72
2017-03-09T04:37:59.168Z,8.72
2017-03-09T04:38:20.922Z,8.71
2017-03-09T04:38:42.828Z,8.77
2017-03-09T04:39:04.585Z,8.79
2017-03-09T04:39:26.735Z,8.80
2017-03-09T04:39:48.762Z,8.79
2017-03-09T04:40:10.472Z,8.73
2017-03-09T04:40:32.422Z,8.72
2017-03-09T04:40:54.187Z,8.71
2017-03-09T04:41:15.968Z,8.73
2017-03-09T04:41:37.747Z,8.72
2017-03-09T04:41:59.562Z,8.72
2017-03-09T04:42:21.427Z,8.72
2017-03-09T04:42:43.177Z,8.72
2017-03-09T04:43:04.928Z,8.70
2017-03-09T04:43:26.774Z,8.70
2017-03-09T04:43:48.528Z,8.67
2017-03-09T04:44:10.659Z,8.67
2017-03-09T04:44:33.276Z,8.67
2017-03-09T04:44:54.974Z,8.67
2017-03-09T04:45:17.136Z,8.65
2017-03-09T04:45:38.842Z,8.68
2017-03-09T04:46:00.741Z,8.67
2017-03-09T04:46:22.525Z,8.68
2017-03-09T04:46:44.231Z,8.69
2017-03-09T04:47:06.214Z,8.67
2017-03-09T04:47:28.063Z,8.70
2017-03-09T04:47:49.862Z,8.70
2017-03-09T04:48:11.798Z,8.70
2017-03-09T04:48:33.637Z,8.70
2017-03-09T04:48:55.479Z,8.69
2017-03-09T04:49:17.789Z,8.70
2017-03-09T04:49:39.549Z,8.71
2017-03-09T04:50:01.306Z,8.71
2017-03-09T04:50:23.514Z,8.70
2017-03-09T04:50:45.235Z,8.71
2017-03-09T04:51:07.353Z,8.71
2017-03-09T04:51:29.108Z,8.70
2017-03-09T04:51:51.197Z,8.70
2017-03-09T04:52:13.119Z,8.71
2017-03-09T04:52:34.970Z,8.72
2017-03-09T04:52:56.746Z,8.71
2017-03-09T04:53:18.486Z,8.72
2017-03-09T04:53:40.275Z,8.71
2017-03-09T04:54:01.985Z,8.71
2017-03-09T04:54:23.747Z,8.69
2017-03-09T04:54:45.817Z,8.69
2017-03-09T04:55:07.565Z,8.70
2017-03-09T04:55:29.626Z,8.71
2017-03-09T04:55:51.481Z,8.70
2017-03-09T04:56:13.290Z,8.70
2017-03-09T04:56:36.054Z,8.71
2017-03-09T04:56:57.788Z,8.71
2017-03-09T04:57:19.581Z,8.72
2017-03-09T04:57:41.405Z,8.72
2017-03-09T04:58:03.334Z,8.71
2017-03-09T04:58:25.655Z,8.71
2017-03-09T04:58:47.846Z,8.75
2017-03-09T04:59:09.597Z,8.74
2017-03-09T04:59:31.588Z,8.77
2017-03-09T04:59:53.591Z,8.76
2017-03-09T05:00:15.466Z,8.77
2017-03-09T05:00:37.302Z,8.73
2017-03-09T05:00:59.053Z,8.71
2017-03-09T05:01:20.997Z,8.67
2017-03-09T05:01:42.948Z,8.66
2017-03-09T05:02:04.691Z,8.67
2017-03-09T05:02:27.495Z,8.68
2017-03-09T05:02:49.551Z,8.68
2017-03-09T05:03:11.260Z,8.69
2017-03-09T05:03:33.133Z,8.72
2017-03-09T05:03:55.052Z,8.74
2017-03-09T05:04:16.902Z,8.75
2017-03-09T05:04:38.592Z,8.73
2017-03-09T05:05:00.278Z,8.73
2017-03-09T05:05:22.035Z,8.73
2017-03-09T05:05:43.797Z,8.72
2017-03-09T05:06:05.709Z,8.73
2017-03-09T05:06:27.540Z,8.73
2017-03-09T05:06:49.287Z,8.77
2017-03-09T05:07:11.008Z,8.78
2017-03-09T05:07:33.014Z,8.77
2017-03-09T05:07:54.808Z,8.80
2017-03-09T05:08:16.657Z,8.78
2017-03-09T05:08:38.484Z,8.78
2017-03-09T05:09:09.887Z,8.80
2017-03-09T05:09:31.593Z,8.77
2017-03-09T05:09:53.318Z,8.78
2017-03-09T05:10:15.099Z,8.77
2017-03-09T05:10:36.889Z,8.79
2017-03-09T05:10:58.722Z,8.79
2017-03-09T05:11:20.481Z,8.79
2017-03-09T05:11:42.280Z,8.78
2017-03-09T05:12:04.174Z,8.77
2017-03-09T05:12:25.891Z,8.71
2017-03-09T05:12:47.872Z,8.72
2017-03-09T05:13:09.683Z,8.73
2017-03-09T05:13:31.450Z,8.72
2017-03-09T05:13:53.140Z,8.72
2017-03-09T05:14:15.729Z,8.71
2017-03-09T05:14:37.479Z,8.72
2017-03-09T05:14:59.824Z,8.74
2017-03-09T05:15:21.633Z,8.74
2017-03-09T05:15:43.552Z,8.78
2017-03-09T05:16:05.397Z,8.81
2017-03-09T05:16:27.449Z,8.83
2017-03-09T05:16:49.356Z,8.82
2017-03-09T05:17:11.097Z,8.79
2017-03-09T05:18:13.699Z,8.78
2017-03-09T05:18:35.440Z,8.79
2017-03-09T05:19:02.225Z,8.81
2017-03-09T05:19:28.977Z,8.78
2017-03-09T05:20:41.126Z,8.78
2017-03-09T05:21:02.873Z,8.80
2017-03-09T05:21:24.570Z,8.79
2017-03-09T05:21:46.306Z,8.78
2017-03-09T05:22:08.060Z,8.80
2017-03-09T05:22:29.773Z,8.81
2017-03-09T05:22:51.497Z,8.82
2017-03-09T05:23:13.244Z,8.81
2017-03-09T05:23:35.134Z,8.83
2017-03-09T05:23:56.933Z,8.83
2017-03-09T05:24:28.227Z,8.78
2017-03-09T05:24:49.976Z,8.78
2017-03-09T05:25:21.253Z,8.80
2017-03-09T05:25:42.983Z,8.81
2017-03-09T05:26:14.236Z,8.81
2017-03-09T05:26:35.958Z,8.80
2017-03-09T05:27:07.244Z,8.83
2017-03-09T05:27:28.998Z,8.82
2017-03-09T05:28:00.254Z,8.84
2017-03-09T05:28:22.046Z,8.86
2017-03-09T05:28:58.076Z,8.87
2017-03-09T05:29:25.213Z,8.88
2017-03-09T05:30:37.271Z,8.88
2017-03-09T05:30:59.008Z,8.85
2017-03-09T05:31:30.265Z,8.85
2017-03-09T05:31:51.977Z,8.83
2017-03-09T05:32:18.582Z,8.82
2017-03-09T05:32:54.623Z,8.83
2017-03-09T05:33:31.241Z,8.84
2017-03-09T05:33:59.361Z,8.82
2017-03-09T05:34:21.097Z,8.82
2017-03-09T05:34:57.133Z,8.82
2017-03-09T05:35:24.230Z,8.81
2017-03-09T05:35:45.961Z,8.83
2017-03-09T05:36:07.754Z,8.82
2017-03-09T05:36:39.004Z,8.82
2017-03-09T05:37:00.787Z,8.82
2017-03-09T05:37:22.522Z,8.80
2017-03-09T05:37:44.256Z,8.78